Suula — OJKZ — position and weather

sailwx.info

Track history (hours):
 
Tides and Currents Weather Stations Pressure Air Temp Water Temp Dewpoint Dewpoint Depression Visibility Wind Speed Wind Dir Waves Ship Positions

Suula

Last reported at 2016-Jul-29 17:04 UTC. Time now 2016-Jul-31 05:30 UTC.
Position N 60°04' E 025°34'.

Length 140 m; draft 6.5 m.

Type: Tanker. MMSI: 230956996.

Date/timePositionNaut miles runAvg speedWind from/ knotsBaromVisibWave heightAir tempDewpointWater temp
2016-Jul-29 17:04N 60°04' E 025°34'30 4.6
2016-Jul-29 10:33N 59°46' E 024°47'1414.1
2016-Jul-29 09:33N 59°43' E 024°19'1413.9
2016-Jul-29 08:33N 59°39' E 023°53'1414.1
2016-Jul-29 07:33N 59°35' E 023°27'5413.1
2016-Jul-29 03:27N 59°32' E 021°40'1314.0
2016-Jul-29 02:33N 59°40' E 021°22'1212.2
2016-Jul-29 01:33N 59°52' E 021°28'  
2016-Jul-24 10:19N 59°33' E 021°12'1114.2
2016-Jul-24 09:33N 59°31' E 021°33'1414.0
2016-Jul-24 08:33N 59°32' E 022°01'3214.7
2016-Jul-24 06:22N 59°38' E 023°03'1113.7
2016-Jul-24 05:33N 59°40' E 023°25'1413.8
2016-Jul-24 04:34N 59°43' E 023°51'2813.8
2016-Jul-24 02:33N 59°50' E 024°45'3 0.1
2016-Jul-22 15:33N 59°47' E 024°46'1514.4
2016-Jul-22 14:33N 59°43' E 024°18'1414.3
2016-Jul-22 13:33N 59°39' E 023°51'1414.2
2016-Jul-22 12:33N 59°34' E 023°24'5513.6
2016-Jul-22 08:32N 59°29' E 021°37'1614.4
2016-Jul-22 07:27N 59°33' E 021°07'3 0.1
2016-Jul-20 08:06N 59°33' E 021°13'814.2
2016-Jul-20 07:33N 59°31' E 021°28'1414.1
2016-Jul-20 06:34N 59°31' E 021°56'2814.1
2016-Jul-20 04:33N 59°36' E 022°51'1413.9
2016-Jul-20 03:33N 59°39' E 023°18'1414.1
2016-Jul-20 02:33N 59°42' E 023°45'1414.1
2016-Jul-20 01:33N 59°46' E 024°12'1414.1
2016-Jul-20 00:33N 59°49' E 024°39'  
Track history (hours):
 
Tides and Currents Weather Stations Pressure Air Temp Water Temp Dewpoint Dewpoint Depression Visibility Wind Speed Wind Dir Waves Ship Positions

Suula

Last reported at 2016-Jul-29 17:04 UTC. Time now 2016-Jul-31 05:30 UTC.
Position N 60°04' E 025°34'.

Length 140 m; draft 6.5 m.

Type: Tanker. MMSI: 230956996.

Date/timePositionNaut miles runAvg speedWind from/ knotsBaromVisibWave heightAir tempDewpointWater temp
2016-Jul-29 17:04N 60°04' E 025°34'30 4.6
2016-Jul-29 10:33N 59°46' E 024°47'1414.1
2016-Jul-29 09:33N 59°43' E 024°19'1413.9
2016-Jul-29 08:33N 59°39' E 023°53'1414.1
2016-Jul-29 07:33N 59°35' E 023°27'5413.1
2016-Jul-29 03:27N 59°32' E 021°40'1314.0
2016-Jul-29 02:33N 59°40' E 021°22'1212.2
2016-Jul-29 01:33N 59°52' E 021°28'  
2016-Jul-24 10:19N 59°33' E 021°12'1114.2
2016-Jul-24 09:33N 59°31' E 021°33'1414.0
2016-Jul-24 08:33N 59°32' E 022°01'3214.7
2016-Jul-24 06:22N 59°38' E 023°03'1113.7
2016-Jul-24 05:33N 59°40' E 023°25'1413.8
2016-Jul-24 04:34N 59°43' E 023°51'2813.8
2016-Jul-24 02:33N 59°50' E 024°45'3 0.1
2016-Jul-22 15:33N 59°47' E 024°46'1514.4
2016-Jul-22 14:33N 59°43' E 024°18'1414.3
2016-Jul-22 13:33N 59°39' E 023°51'1414.2
2016-Jul-22 12:33N 59°34' E 023°24'5513.6
2016-Jul-22 08:32N 59°29' E 021°37'1614.4
2016-Jul-22 07:27N 59°33' E 021°07'3 0.1
2016-Jul-20 08:06N 59°33' E 021°13'814.2
2016-Jul-20 07:33N 59°31' E 021°28'1414.1
2016-Jul-20 06:34N 59°31' E 021°56'2814.1
2016-Jul-20 04:33N 59°36' E 022°51'1413.9
2016-Jul-20 03:33N 59°39' E 023°18'1414.1
2016-Jul-20 02:33N 59°42' E 023°45'1414.1
2016-Jul-20 01:33N 59°46' E 024°12'1414.1
2016-Jul-20 00:33N 59°49' E 024°39'  

Dump ship's entire track history